Time;durP1;ratioP1;P1;durP2;ratioP2;P2;SDS_P1;SDS_P2;PMS_P1;PMS_P2;Temp;Humidity;BMP_temperature;BMP_pressure;BME280_temperature;BME280_humidity;BME280_pressure;Samples;Min_cycle;Max_cycle;Signal;HPM_P1;HPM_P2
2023/07/10 00:01:01;;;;;;;4.70;2.90;;;22.40;56.70;22.50;100856.00;;;;4945911;28;113105;-67
2023/07/10 00:03:30;;;;;;;3.63;2.65;;;22.40;56.80;22.50;100853.00;;;;4949752;28;92737;-67
2023/07/10 00:05:57;;;;;;;3.30;3.00;;;22.30;57.00;22.50;100844.00;;;;4949269;28;92774;-68
2023/07/10 00:08:22;;;;;;;3.97;2.75;;;22.30;57.10;22.40;100846.00;;;;4947682;28;98422;-68
2023/07/10 00:10:50;;;;;;;4.47;3.65;;;22.30;57.30;22.40;100847.00;;;;4950223;28;123473;-68
2023/07/10 00:13:21;;;;;;;3.97;2.95;;;22.20;57.50;22.40;100839.00;;;;4951897;28;92590;-67
2023/07/10 00:15:48;;;;;;;3.67;3.08;;;22.20;57.60;22.30;100843.00;;;;4950863;28;92873;-67
2023/07/10 00:18:17;;;;;;;5.10;3.28;;;22.10;57.90;22.30;100845.00;;;;4948925;28;93715;-68
2023/07/10 00:20:47;;;;;;;4.53;3.45;;;22.10;58.20;22.20;100843.00;;;;4949910;28;113593;-68
2023/07/10 00:23:14;;;;;;;3.88;3.28;;;22.00;58.40;22.20;100844.00;;;;4950285;28;92758;-68
2023/07/10 00:25:41;;;;;;;3.80;3.45;;;22.00;58.90;22.10;100827.00;;;;4948982;28;93026;-67
2023/07/10 00:28:23;;;;;;;3.00;2.28;;;22.00;59.10;22.00;100831.00;;;;4935931;28;112012;-68
2023/07/10 00:30:50;;;;;;;5.88;3.22;;;21.90;59.30;22.00;100830.00;;;;4947937;28;93640;-68
2023/07/10 00:33:19;;;;;;;4.25;2.97;;;21.80;59.40;21.90;100822.00;;;;4944468;28;93124;-67
2023/07/10 00:35:46;;;;;;;5.18;3.33;;;21.80;59.60;21.90;100829.00;;;;4941714;28;96055;-68
2023/07/10 00:38:29;;;;;;;3.58;2.70;;;21.70;59.70;21.80;100824.00;;;;4951380;28;92341;-67
2023/07/10 00:40:57;;;;;;;4.40;3.45;;;21.70;60.00;21.80;100826.00;;;;4932020;28;92716;-67
2023/07/10 00:43:39;;;;;;;7.00;3.50;;;21.60;60.00;21.70;100822.00;;;;4948823;28;108848;-68
2023/07/10 00:46:25;;;;;;;5.15;2.95;;;21.60;60.20;21.70;100824.00;;;;4932524;28;100054;-68
2023/07/10 00:48:57;;;;;;;3.50;2.97;;;21.50;60.20;21.70;100833.00;;;;4948556;28;111453;-67
2023/07/10 00:51:39;;;;;;;3.70;3.40;;;21.50;60.30;21.60;100838.00;;;;4949835;28;113091;-67
2023/07/10 00:54:21;;;;;;;3.92;3.05;;;21.50;60.70;21.60;100837.00;;;;4931811;28;92886;-68
2023/07/10 00:56:48;;;;;;;3.20;2.88;;;21.40;60.90;21.60;100837.00;;;;4913417;28;103419;-68
2023/07/10 00:59:22;;;;;;;4.72;3.63;;;21.40;61.00;21.60;100844.00;;;;4947006;28;94338;-67
2023/07/10 01:02:13;;;;;;;3.72;2.63;;;21.40;61.30;21.50;100848.00;;;;4948880;28;93044;-67
2023/07/10 01:04:41;;;;;;;2.90;2.70;;;21.40;61.80;21.50;100845.00;;;;4945425;28;110376;-67
2023/07/10 01:07:13;;;;;;;4.40;2.97;;;21.40;61.90;21.50;100851.00;;;;4949072;28;99317;-67
2023/07/10 01:09:51;;;;;;;4.22;2.97;;;21.30;62.20;21.40;100850.00;;;;4931836;28;113766;-67
2023/07/10 01:12:18;;;;;;;4.53;3.67;;;21.30;62.50;21.40;100845.00;;;;4934212;28;93964;-67
2023/07/10 01:14:44;;;;;;;3.10;2.83;;;21.20;62.70;21.40;100845.00;;;;4950833;28;92841;-67
2023/07/10 01:17:10;;;;;;;4.45;3.72;;;21.20;62.90;21.40;100859.00;;;;4945233;28;107137;-67
2023/07/10 01:19:38;;;;;;;4.10;3.10;;;21.20;63.00;21.40;100849.00;;;;4948278;28;122099;-68
2023/07/10 01:22:09;;;;;;;3.33;3.03;;;21.20;63.20;21.50;100853.00;;;;4946970;28;95702;-67
2023/07/10 01:24:36;;;;;;;3.85;2.78;;;21.30;63.30;21.50;100857.00;;;;4951041;28;92966;-68
2023/07/10 01:27:04;;;;;;;3.45;3.15;;;21.30;63.40;21.50;100861.00;;;;4947866;28;93045;-68
2023/07/10 01:29:42;;;;;;;4.50;2.90;;;21.30;63.50;21.60;100925.00;;;;4939992;28;94155;-68
2023/07/10 01:32:14;;;;;;;4.63;4.15;;;21.40;64.10;21.50;101005.00;;;;4927186;28;93040;-67
2023/07/10 01:34:50;;;;;;;5.75;3.67;;;21.40;66.70;21.60;101004.00;;;;4947602;28;93137;-66
2023/07/10 01:37:16;;;;;;;5.40;3.78;;;21.40;66.30;21.70;100982.00;;;;4949465;28;93785;-66
2023/07/10 01:39:48;;;;;;;3.70;3.13;;;21.40;65.70;21.80;101011.00;;;;4949468;28;121954;-68
2023/07/10 01:42:14;;;;;;;3.55;3.25;;;21.60;64.90;22.00;101001.00;;;;4951467;28;92999;-67
2023/07/10 01:44:43;;;;;;;3.33;2.88;;;21.70;64.10;22.20;100998.00;;;;4947532;28;92826;-68
2023/07/10 01:47:12;;;;;;;2.60;2.40;;;21.90;63.20;22.40;101000.00;;;;4926361;28;95487;-66
2023/07/10 01:49:49;;;;;;;2.92;2.67;;;22.10;62.50;22.60;100990.00;;;;4946742;28;94449;-66
2023/07/10 01:52:17;;;;;;;4.95;3.30;;;22.30;61.80;22.80;100984.00;;;;4933738;28;111172;-68
2023/07/10 01:54:43;;;;;;;3.00;2.05;;;22.50;61.00;23.00;100992.00;;;;4947840;28;99318;-67
2023/07/10 01:57:11;;;;;;;3.15;2.85;;;22.60;60.20;23.10;100979.00;;;;4947309;28;93165;-67
2023/07/10 01:59:37;;;;;;;2.60;2.40;;;22.80;59.80;23.20;100979.00;;;;4950665;28;93455;-68
2023/07/10 02:02:04;;;;;;;3.90;2.42;;;22.90;59.50;23.30;100976.00;;;;4945498;28;114064;-68
2023/07/10 02:04:30;;;;;;;3.25;1.98;;;23.10;59.30;23.40;100977.00;;;;4931618;28;93024;-66
2023/07/10 02:06:56;;;;;;;5.88;2.63;;;23.10;58.90;23.50;100970.00;;;;4947100;28;108830;-68
2023/07/10 02:09:25;;;;;;;3.25;1.95;;;23.20;58.70;23.60;100969.00;;;;4930397;28;93047;-68
2023/07/10 02:11:52;;;;;;;3.85;2.78;;;23.30;58.50;23.60;100953.00;;;;4943948;28;102637;-67
2023/07/10 02:14:18;;;;;;;4.30;2.67;;;23.40;58.40;23.70;100950.00;;;;4949896;28;93939;-68
2023/07/10 02:16:44;;;;;;;3.55;2.90;;;23.40;58.30;23.70;100947.00;;;;4947166;28;103049;-66
2023/07/10 02:19:11;;;;;;;4.20;3.17;;;23.50;58.70;23.70;100942.00;;;;4949188;28;120478;-67
2023/07/10 02:21:37;;;;;;;3.47;2.15;;;23.50;59.10;23.50;100933.00;;;;4950840;28;101658;-66
2023/07/10 02:24:03;;;;;;;2.63;2.22;;;23.40;59.60;23.40;100912.00;;;;4946242;28;110619;-66
2023/07/10 02:26:29;;;;;;;4.03;2.45;;;23.20;60.60;23.20;100892.00;;;;4948358;28;93840;-67
2023/07/10 02:28:58;;;;;;;3.30;2.13;;;23.10;61.80;23.00;100869.00;;;;4946602;28;94002;-66
2023/07/10 02:31:25;;;;;;;2.58;2.38;;;22.90;62.90;22.90;100846.00;;;;4945301;28;123397;-67
2023/07/10 02:33:51;;;;;;;4.47;3.17;;;22.80;63.70;22.70;100829.00;;;;4945618;28;93043;-68
2023/07/10 02:36:17;;;;;;;3.80;3.30;;;22.60;65.00;22.60;100801.00;;;;4934543;28;92876;-66
2023/07/10 02:38:43;;;;;;;3.45;3.15;;;22.50;66.70;22.50;100774.00;;;;4942686;28;122713;-66
2023/07/10 02:41:09;;;;;;;3.10;2.80;;;22.30;67.70;22.30;100758.00;;;;4945452;28;93311;-65
2023/07/10 02:43:35;;;;;;;2.75;2.53;;;22.20;70.00;22.10;100750.00;;;;4946419;28;92675;-67
2023/07/10 02:46:00;;;;;;;3.65;2.17;;;22.00;70.60;21.90;100739.00;;;;4948721;28;108541;-66
2023/07/10 02:48:26;;;;;;;4.18;3.10;;;21.90;71.40;21.80;100722.00;;;;4945847;28;122235;-66
2023/07/10 02:50:52;;;;;;;8.25;2.47;;;21.70;71.60;21.70;100728.00;;;;4942825;28;122936;-67
2023/07/10 02:53:17;;;;;;;5.68;2.83;;;21.70;71.60;21.70;100742.00;;;;4944784;28;101690;-66
2023/07/10 02:55:43;;;;;;;4.13;2.78;;;21.60;71.50;21.70;100751.00;;;;4945162;28;92921;-66
2023/07/10 02:58:09;;;;;;;3.25;2.95;;;21.50;71.90;21.70;100772.00;;;;4947411;28;92939;-67
2023/07/10 03:00:35;;;;;;;4.32;3.15;;;21.50;72.30;21.70;100777.00;;;;4947985;28;122072;-67
2023/07/10 03:03:01;;;;;;;3.75;2.63;;;21.50;72.50;21.60;100783.00;;;;4951436;28;92977;-67
2023/07/10 03:05:26;;;;;;;4.47;3.25;;;21.50;72.60;21.60;100781.00;;;;4949819;28;93111;-67
2023/07/10 03:07:52;;;;;;;3.55;3.25;;;21.50;72.80;21.60;100779.00;;;;4949310;28;120776;-67
2023/07/10 03:10:19;;;;;;;4.65;3.28;;;21.40;72.90;21.60;100776.00;;;;4949534;28;93363;-66
2023/07/10 03:12:46;;;;;;;3.70;2.22;;;21.40;73.10;21.60;100771.00;;;;4952780;28;92895;-67
2023/07/10 03:15:11;;;;;;;4.90;2.83;;;21.40;73.40;21.60;100769.00;;;;4947778;28;108891;-67
2023/07/10 03:17:37;;;;;;;3.35;2.67;;;21.40;73.80;21.60;100765.00;;;;4947131;28;121648;-66
2023/07/10 03:20:03;;;;;;;3.97;3.33;;;21.40;74.30;21.50;100763.00;;;;4952137;28;122329;-67
2023/07/10 03:22:29;;;;;;;3.15;2.65;;;21.40;74.30;21.60;100765.00;;;;4952562;28;92797;-67
2023/07/10 03:24:55;;;;;;;4.43;2.92;;;21.40;74.70;21.60;100752.00;;;;4946408;28;109134;-66
2023/07/10 03:27:39;;;;;;;5.40;3.35;;;21.40;75.10;21.60;100759.00;;;;4951440;28;107496;-67
2023/07/10 03:30:06;;;;;;;3.45;2.45;;;21.40;75.50;21.60;100772.00;;;;4961560;28;122592;-68
2023/07/10 03:32:32;;;;;;;4.65;2.85;;;21.40;75.60;21.70;100803.00;;;;4949805;28;93113;-67
2023/07/10 03:34:58;;;;;;;9.98;3.33;;;21.40;75.80;21.70;100852.00;;;;4949657;28;104348;-67
2023/07/10 03:37:24;;;;;;;3.88;3.38;;;21.50;76.00;21.70;100901.00;;;;4947045;28;93680;-67
2023/07/10 03:39:50;;;;;;;3.75;3.03;;;21.50;76.40;21.80;100928.00;;;;4945471;28;114246;-67
2023/07/10 03:42:16;;;;;;;3.47;2.85;;;21.60;76.70;21.80;100954.00;;;;4947492;28;102963;-70
2023/07/10 03:44:41;;;;;;;4.20;3.10;;;21.60;77.70;21.50;100952.00;;;;4927811;28;109597;-66
2023/07/10 03:47:07;;;;;;;3.80;3.00;;;21.50;81.60;20.90;100924.00;;;;4978194;27;123018;-69
2023/07/10 03:49:33;;;;;;;4.13;3.42;;;21.10;84.30;20.40;100889.00;;;;4972904;28;122258;-68
2023/07/10 03:51:58;;;;;;;9.15;3.85;;;20.60;88.30;19.90;100819.00;;;;4974255;28;109671;-66
2023/07/10 03:54:24;;;;;;;5.28;3.78;;;20.20;93.50;19.60;100778.00;;;;4969050;28;108159;-67
2023/07/10 03:56:50;;;;;;;5.72;3.55;;;19.80;97.20;19.30;100767.00;;;;4970416;28;104179;-67
2023/07/10 03:59:18;;;;;;;5.63;3.47;;;19.40;99.80;19.20;100761.00;;;;4969125;28;121268;-65
2023/07/10 04:01:44;;;;;;;4.30;3.88;;;19.20;99.90;19.10;100757.00;;;;4972433;28;110375;-66
2023/07/10 04:04:10;;;;;;;7.22;3.67;;;19.10;99.90;19.10;100748.00;;;;4965124;28;109443;-66
2023/07/10 04:06:35;;;;;;;5.00;4.35;;;19.00;99.90;19.00;100758.00;;;;4968174;28;96340;-65
2023/07/10 04:09:01;;;;;;;4.07;2.88;;;19.00;99.90;19.00;100754.00;;;;4969476;28;121986;-64
2023/07/10 04:11:29;;;;;;;3.47;2.90;;;18.90;99.90;19.10;100765.00;;;;4965659;28;105195;-65
2023/07/10 04:13:54;;;;;;;4.97;3.35;;;19.00;99.90;19.10;100776.00;;;;4967588;28;92825;-65
2023/07/10 04:16:26;;;;;;;4.18;3.75;;;19.00;99.90;19.20;100782.00;;;;4967875;28;123293;-65
2023/07/10 04:18:53;;;;;;;3.60;2.85;;;19.10;99.90;19.30;100778.00;;;;4966330;28;97528;-66
2023/07/10 04:21:31;;;;;;;3.03;2.72;;;19.20;99.90;19.40;100777.00;;;;4968988;28;101771;-67
2023/07/10 04:23:58;;;;;;;5.60;3.25;;;19.30;99.90;19.50;100766.00;;;;4964743;28;97750;-67
2023/07/10 04:26:33;;;;;;;5.13;3.00;;;19.40;99.90;19.50;100769.00;;;;4966862;28;93186;-66
2023/07/10 04:29:03;;;;;;;5.57;3.30;;;19.40;99.90;19.50;100761.00;;;;4965240;28;110548;-66
2023/07/10 04:31:29;;;;;;;4.25;3.60;;;19.40;99.90;19.50;100755.00;;;;4966616;28;92786;-66
2023/07/10 04:33:56;;;;;;;3.97;3.42;;;19.40;99.90;19.50;100756.00;;;;4967440;28;108726;-66
2023/07/10 04:36:23;;;;;;;4.57;3.50;;;19.40;99.90;19.50;100764.00;;;;4970698;28;94204;-67
2023/07/10 04:38:49;;;;;;;4.13;3.72;;;19.50;99.90;19.50;100766.00;;;;4970836;28;92850;-66
2023/07/10 04:41:20;;;;;;;5.40;3.95;;;19.40;99.90;19.50;100759.00;;;;4966827;28;109583;-65
2023/07/10 04:43:46;;;;;;;5.40;3.95;;;19.40;99.90;19.50;100759.00;;;;4966099;28;92933;-66
2023/07/10 04:46:14;;;;;;;5.82;3.85;;;19.40;99.90;19.50;100751.00;;;;4971497;28;92402;-66
2023/07/10 04:48:42;;;;;;;6.00;4.40;;;19.40;99.90;19.50;100756.00;;;;4967885;28;92996;-66
2023/07/10 04:51:10;;;;;;;3.42;3.10;;;19.40;99.90;19.50;100746.00;;;;4968560;28;92828;-65
2023/07/10 04:53:37;;;;;;;4.10;3.70;;;19.40;99.90;19.50;100750.00;;;;4970001;28;94151;-66
2023/07/10 04:56:07;;;;;;;7.85;4.03;;;19.40;99.90;19.50;100743.00;;;;4969481;28;115617;-65
2023/07/10 04:58:52;;;;;;;5.25;3.20;;;19.40;99.90;19.60;100739.00;;;;4967268;28;108149;-65
2023/07/10 05:01:21;;;;;;;4.90;3.60;;;19.50;99.90;19.60;100736.00;;;;4967421;28;93104;-65
2023/07/10 05:03:48;;;;;;;4.40;4.00;;;19.50;99.90;19.60;100743.00;;;;4967992;28;93419;-65
2023/07/10 05:06:14;;;;;;;6.03;3.92;;;19.50;99.90;19.70;100741.00;;;;4967028;28;93405;-66
2023/07/10 05:08:40;;;;;;;3.97;3.63;;;19.60;99.90;19.70;100743.00;;;;4970397;28;92985;-65
2023/07/10 05:11:06;;;;;;;5.68;3.78;;;19.60;99.90;19.80;100732.00;;;;4971976;28;92436;-66
2023/07/10 05:13:32;;;;;;;5.47;3.25;;;19.60;99.90;19.80;100733.00;;;;4965588;28;107947;-65
2023/07/10 05:15:59;;;;;;;5.78;4.15;;;19.70;99.90;19.90;100736.00;;;;4965835;28;122934;-66
2023/07/10 05:18:26;;;;;;;5.13;3.92;;;19.70;99.90;19.90;100736.00;;;;4969443;28;94080;-66
2023/07/10 05:20:57;;;;;;;4.72;3.63;;;19.80;99.90;20.00;100735.00;;;;4968595;28;92729;-66
2023/07/10 05:23:23;;;;;;;6.40;3.90;;;19.80;99.90;20.10;100731.00;;;;4968213;28;94124;-66
2023/07/10 05:26:03;;;;;;;5.20;3.65;;;19.90;99.90;20.10;100729.00;;;;4967284;28;93914;-66
2023/07/10 05:28:29;;;;;;;4.85;4.20;;;20.00;99.90;20.20;100732.00;;;;4967008;28;104939;-69
2023/07/10 05:30:59;;;;;;;5.00;3.78;;;20.10;99.90;20.30;100732.00;;;;4963254;28;92828;-69
2023/07/10 05:33:25;;;;;;;4.55;3.53;;;20.10;99.90;20.40;100735.00;;;;4966930;28;92717;-67
2023/07/10 05:35:59;;;;;;;5.35;4.05;;;20.20;99.90;20.50;100727.00;;;;4966214;28;92430;-68
2023/07/10 05:38:29;;;;;;;5.03;3.72;;;20.30;99.90;20.60;100728.00;;;;4962692;28;114443;-67
2023/07/10 05:40:55;;;;;;;4.20;3.90;;;20.40;99.90;20.80;100723.00;;;;4966249;28;93264;-67
2023/07/10 05:43:21;;;;;;;5.18;3.42;;;20.60;99.90;21.10;100732.00;;;;4961543;28;108026;-67
2023/07/10 05:45:48;;;;;;;3.33;3.03;;;20.80;99.90;21.40;100728.00;;;;4965848;28;122957;-68
2023/07/10 05:48:15;;;;;;;4.13;3.10;;;21.10;99.90;21.70;100734.00;;;;4967454;28;116311;-68
2023/07/10 05:50:45;;;;;;;4.18;3.00;;;21.40;99.90;21.90;100739.00;;;;4967358;28;92928;-68
2023/07/10 05:53:10;;;;;;;4.28;3.03;;;21.60;99.90;22.10;100765.00;;;;4965025;28;92998;-69
2023/07/10 05:55:36;;;;;;;3.97;3.40;;;21.90;99.90;22.30;100820.00;;;;4968031;28;123400;-67
2023/07/10 05:58:02;;;;;;;4.20;3.60;;;22.20;99.90;22.40;100912.00;;;;4965286;28;121089;-69
2023/07/10 06:00:27;;;;;;;5.47;4.38;;;22.20;99.90;22.40;100909.00;;;;4968766;28;111281;-67
2023/07/10 06:02:54;;;;;;;5.25;3.38;;;22.30;99.90;22.40;100861.00;;;;4969584;28;92818;-69
2023/07/10 06:05:19;;;;;;;4.65;3.53;;;22.20;99.90;22.30;100844.00;;;;4966460;28;94119;-67
2023/07/10 06:07:45;;;;;;;3.47;3.17;;;22.20;99.90;22.10;100853.00;;;;4966132;28;122479;-68
2023/07/10 06:10:10;;;;;;;4.45;2.75;;;22.00;99.90;21.80;100865.00;;;;4964963;28;109858;-69
2023/07/10 06:12:36;;;;;;;5.40;3.22;;;21.80;99.90;21.40;100839.00;;;;4968212;28;109300;-70
2023/07/10 06:15:02;;;;;;;7.32;2.92;;;21.40;99.90;20.90;100818.00;;;;4966394;28;111716;-70
2023/07/10 06:17:28;;;;;;;4.00;3.60;;;21.00;99.90;20.60;100790.00;;;;4967237;28;112322;-73
2023/07/10 06:19:53;;;;;;;3.85;3.53;;;20.70;99.90;20.40;100778.00;;;;4971183;28;110484;-72
2023/07/10 06:22:19;;;;;;;4.60;3.15;;;20.40;99.90;20.30;100763.00;;;;4966250;28;109493;-68
2023/07/10 06:24:45;;;;;;;3.45;3.15;;;20.20;99.90;20.10;100778.00;;;;4966991;28;122016;-68
2023/07/10 06:27:10;;;;;;;5.43;3.72;;;20.10;99.90;20.10;100771.00;;;;4965803;28;120801;-68
2023/07/10 06:29:37;;;;;;;5.20;4.10;;;20.00;99.90;20.10;100793.00;;;;4967898;28;109905;-68
2023/07/10 06:32:04;;;;;;;4.80;2.97;;;20.00;99.90;20.10;100787.00;;;;4966826;28;97408;-67
2023/07/10 06:34:30;;;;;;;6.00;3.38;;;20.00;99.90;20.10;100784.00;;;;4967416;28;93186;-67
2023/07/10 06:36:58;;;;;;;5.63;4.30;;;20.00;99.90;20.10;100769.00;;;;4965583;28;122913;-67
2023/07/10 06:39:26;;;;;;;4.38;2.78;;;19.90;99.90;20.10;100765.00;;;;4966973;28;109629;-67
2023/07/10 06:41:53;;;;;;;4.18;2.85;;;20.00;99.90;20.10;100749.00;;;;4962715;28;92938;-67
2023/07/10 06:44:19;;;;;;;4.72;3.70;;;20.00;99.90;20.10;100736.00;;;;4973437;28;94344;-67
2023/07/10 06:46:48;;;;;;;8.10;3.85;;;20.00;99.90;20.10;100713.00;;;;4967948;28;113888;-67
2023/07/10 06:49:13;;;;;;;7.57;3.58;;;20.00;99.90;20.20;100718.00;;;;4950399;28;107309;-67
2023/07/10 06:51:39;;;;;;;4.78;4.28;;;20.00;99.90;20.20;100701.00;;;;4972013;28;108647;-67
2023/07/10 06:54:06;;;;;;;3.55;2.72;;;20.00;99.90;20.20;100700.00;;;;4966038;28;114016;-68
2023/07/10 06:56:37;;;;;;;3.97;3.15;;;20.10;99.90;20.20;100691.00;;;;4967645;28;114495;-67
2023/07/10 06:59:03;;;;;;;3.63;3.25;;;20.10;99.90;20.20;100669.00;;;;4966031;28;110007;-67
2023/07/10 07:01:29;;;;;;;4.95;3.05;;;20.10;99.90;20.20;100633.00;;;;4971217;28;110305;-66
2023/07/10 07:03:54;;;;;;;3.25;2.92;;;20.00;99.90;20.10;100616.00;;;;4969837;28;93325;-65
2023/07/10 07:06:20;;;;;;;3.22;2.92;;;20.00;99.90;20.10;100662.00;;;;4978948;28;121118;-66
2023/07/10 07:08:51;;;;;;;6.00;2.95;;;20.00;99.90;20.10;100663.00;;;;4987117;28;111816;-66
2023/07/10 07:11:17;;;;;;;4.10;2.97;;;20.00;99.90;20.20;100653.00;;;;4989623;28;92927;-67
2023/07/10 07:13:43;;;;;;;4.30;3.25;;;20.10;99.90;20.40;100670.00;;;;4988334;28;112359;-67
2023/07/10 07:16:09;;;;;;;3.10;2.72;;;20.20;99.90;20.50;100658.00;;;;4991959;28;93017;-67
2023/07/10 07:18:35;;;;;;;3.65;3.22;;;20.30;99.90;20.70;100672.00;;;;4988649;28;92722;-67
2023/07/10 07:21:01;;;;;;;8.02;3.95;;;20.40;99.90;20.90;100683.00;;;;4988325;28;93773;-67
2023/07/10 07:23:27;;;;;;;5.32;3.88;;;20.60;99.90;21.10;100715.00;;;;4990178;28;122621;-67
2023/07/10 07:25:54;;;;;;;6.05;3.67;;;20.80;99.90;21.30;100720.00;;;;4988750;28;93201;-68
2023/07/10 07:28:20;;;;;;;3.03;2.70;;;21.00;99.90;21.50;100718.00;;;;4976164;28;92790;-67
2023/07/10 07:30:49;;;;;;;3.55;3.20;;;21.20;99.90;21.60;100716.00;;;;4985726;28;108008;-67
2023/07/10 07:33:19;;;;;;;3.67;3.33;;;21.40;99.90;21.80;100717.00;;;;4972243;28;93725;-67
2023/07/10 07:35:45;;;;;;;5.55;4.07;;;21.50;99.90;22.00;100718.00;;;;4972053;28;98859;-67
2023/07/10 07:38:13;;;;;;;3.17;2.83;;;21.70;99.90;22.10;100733.00;;;;4972090;28;101488;-67
2023/07/10 07:40:38;;;;;;;3.90;3.40;;;21.90;99.90;22.30;100723.00;;;;4970603;28;102102;-67
2023/07/10 07:43:04;;;;;;;4.53;3.13;;;22.00;99.90;22.60;100732.00;;;;4973494;28;121593;-67
2023/07/10 07:45:30;;;;;;;4.32;3.50;;;22.30;99.90;23.00;100738.00;;;;4966603;28;122623;-67
2023/07/10 07:47:55;;;;;;;4.65;4.25;;;22.60;99.90;23.30;100736.00;;;;4966737;28;110150;-67
2023/07/10 07:50:21;;;;;;;3.47;3.17;;;22.90;99.90;23.60;100743.00;;;;4968293;28;107449;-66
2023/07/10 07:52:47;;;;;;;4.05;3.65;;;23.20;99.90;23.90;100748.00;;;;4967806;28;122189;-67
2023/07/10 07:55:12;;;;;;;4.32;3.00;;;23.50;99.90;24.20;100758.00;;;;4969031;28;109441;-66
2023/07/10 07:57:38;;;;;;;4.93;4.13;;;23.80;99.90;24.60;100755.00;;;;4967395;28;110829;-66
2023/07/10 08:00:06;;;;;;;5.93;4.15;;;24.20;99.90;25.00;100743.00;;;;4973438;28;101148;-66
2023/07/10 08:02:32;;;;;;;4.13;3.15;;;24.60;99.90;25.40;100743.00;;;;4968107;28;93721;-66
2023/07/10 08:05:00;;;;;;;5.10;2.63;;;24.90;99.90;25.70;100746.00;;;;4963607;28;121961;-65
2023/07/10 08:07:26;;;;;;;8.32;4.07;;;25.40;99.90;26.10;100740.00;;;;4966007;28;93224;-66
2023/07/10 08:09:52;;;;;;;6.03;3.38;;;25.70;99.90;26.30;100735.00;;;;4965530;28;101611;-67
2023/07/10 08:12:17;;;;;;;4.68;3.65;;;26.00;99.90;26.50;100723.00;;;;4964346;28;100468;-66
2023/07/10 08:14:46;;;;;;;4.05;3.65;;;26.10;99.60;26.60;100728.00;;;;4965242;28;122766;-67
2023/07/10 08:17:11;;;;;;;4.53;3.72;;;26.20;98.40;26.70;100721.00;;;;4966292;28;92920;-67
2023/07/10 08:19:37;;;;;;;4.03;3.40;;;26.40;97.30;26.90;100719.00;;;;4971943;28;107406;-67
2023/07/10 08:22:03;;;;;;;5.30;3.63;;;26.50;95.90;27.00;100714.00;;;;4968905;28;95600;-65
2023/07/10 08:24:29;;;;;;;11.20;3.47;;;26.70;95.00;27.20;100721.00;;;;4965993;28;92970;-67
2023/07/10 08:26:56;;;;;;;5.03;3.95;;;26.90;95.00;27.50;100727.00;;;;4962896;28;110676;-66
2023/07/10 08:29:30;;;;;;;4.20;3.53;;;27.10;94.30;27.80;100724.00;;;;4967357;28;97275;-67
2023/07/10 08:31:58;;;;;;;3.80;3.38;;;27.40;93.50;28.20;100724.00;;;;4966077;28;114140;-67
2023/07/10 08:34:25;;;;;;;6.45;3.72;;;27.70;90.40;28.20;100725.00;;;;4965249;28;93850;-68
2023/07/10 08:36:52;;;;;;;3.95;3.55;;;27.90;87.90;28.30;100713.00;;;;4968080;28;93000;-67
2023/07/10 08:39:21;;;;;;;4.65;3.72;;;27.90;88.00;28.50;100709.00;;;;4966944;28;93197;-68
2023/07/10 08:42:00;;;;;;;3.90;2.95;;;28.10;85.90;28.60;100710.00;;;;4949367;28;93270;-67
2023/07/10 08:44:37;;;;;;;3.35;2.65;;;28.20;82.70;28.60;100695.00;;;;4964506;28;92856;-67
2023/07/10 08:47:15;;;;;;;4.25;2.33;;;28.20;80.90;28.70;100701.00;;;;4955106;28;92938;-67
2023/07/10 08:49:54;;;;;;;4.32;2.83;;;28.40;80.00;28.90;100690.00;;;;4953060;28;93411;-68
2023/07/10 08:52:36;;;;;;;7.45;3.70;;;28.50;80.00;29.10;100690.00;;;;4965701;28;93641;-68
2023/07/10 08:55:03;;;;;;;4.93;2.85;;;28.70;79.90;29.40;100693.00;;;;4944999;28;113871;-67
2023/07/10 08:57:34;;;;;;;5.13;3.65;;;28.90;78.40;29.50;100693.00;;;;4941499;28;93085;-68
2023/07/10 09:00:13;;;;;;;3.95;3.60;;;29.20;75.60;29.60;100689.00;;;;4972225;28;94042;-68
2023/07/10 09:02:55;;;;;;;6.40;4.07;;;29.20;75.20;29.70;100680.00;;;;4956034;28;92983;-69
2023/07/10 09:05:30;;;;;;;5.00;3.05;;;29.30;75.00;29.90;100695.00;;;;4951740;28;93031;-69
2023/07/10 09:07:59;;;;;;;3.05;2.58;;;29.50;75.10;30.20;100679.00;;;;4962281;28;93175;-68
2023/07/10 09:10:41;;;;;;;3.95;3.08;;;29.70;71.40;30.40;100679.00;;;;4967036;28;98048;-69
2023/07/10 09:13:13;;;;;;;3.13;2.83;;;29.90;72.00;30.60;100667.00;;;;4969061;28;92972;-69
2023/07/10 09:15:50;;;;;;;3.40;2.90;;;30.10;70.20;30.80;100665.00;;;;4957238;28;113971;-68
2023/07/10 09:18:26;;;;;;;4.80;3.22;;;30.40;69.00;31.00;100661.00;;;;4968784;28;92328;-69
2023/07/10 09:20:58;;;;;;;3.78;2.53;;;30.50;65.10;31.10;100666.00;;;;4955288;28;93243;-68
2023/07/10 09:23:33;;;;;;;6.47;3.25;;;30.60;64.90;31.30;100699.00;;;;4969970;28;93282;-70
2023/07/10 09:26:12;;;;;;;2.78;2.58;;;30.80;65.00;31.40;100713.00;;;;4965421;28;94188;-70
2023/07/10 09:28:42;;;;;;;2.75;2.33;;;31.00;64.30;31.50;100710.00;;;;4961646;28;93442;-70
2023/07/10 09:31:24;;;;;;;6.30;2.65;;;31.10;63.60;31.30;100683.00;;;;4932945;28;92893;-69
2023/07/10 09:33:58;;;;;;;4.45;2.78;;;31.00;61.80;31.20;100696.00;;;;4946728;28;112812;-70
2023/07/10 09:36:24;;;;;;;3.47;3.10;;;30.80;62.00;31.10;100694.00;;;;4948348;28;92962;-70
2023/07/10 09:38:54;;;;;;;3.08;2.72;;;30.70;62.10;31.00;100708.00;;;;4968532;28;93122;-70
2023/07/10 09:41:24;;;;;;;6.22;2.83;;;30.70;61.60;30.90;100700.00;;;;4971329;28;93029;-69
2023/07/10 09:44:02;;;;;;;4.30;2.67;;;30.60;60.90;30.80;100698.00;;;;4967634;28;92566;-69
2023/07/10 09:46:31;;;;;;;3.25;2.20;;;30.40;61.80;30.70;100706.00;;;;4946663;28;93069;-70
2023/07/10 09:49:01;;;;;;;3.15;2.88;;;30.40;62.40;30.70;100709.00;;;;4956785;28;92891;-69
2023/07/10 09:51:28;;;;;;;2.85;2.53;;;30.30;62.50;30.80;100696.00;;;;4961937;28;98783;-70
2023/07/10 09:54:04;;;;;;;5.50;2.42;;;30.40;62.00;31.00;100688.00;;;;4958202;28;93762;-68
2023/07/10 09:56:38;;;;;;;2.63;2.42;;;30.50;62.30;31.30;100683.00;;;;4941211;28;93110;-69
2023/07/10 09:59:33;;;;;;;5.20;3.03;;;30.70;61.50;31.60;100683.00;;;;4965867;28;92826;-69
2023/07/10 10:02:38;;;;;;;2.88;2.20;;;31.00;61.40;31.90;100686.00;;;;4947274;28;99045;-70
2023/07/10 10:05:19;;;;;;;3.72;3.03;;;31.30;59.70;32.00;100695.00;;;;4951162;28;114495;-70
2023/07/10 10:07:49;;;;;;;3.42;2.15;;;31.50;59.10;31.90;100698.00;;;;4968820;28;93388;-70
2023/07/10 10:10:22;;;;;;;3.22;2.47;;;31.50;58.50;31.90;100694.00;;;;4944846;28;92251;-71
2023/07/10 10:13:27;;;;;;;3.78;2.47;;;31.50;59.00;32.10;100685.00;;;;4969550;28;94547;-69
2023/07/10 10:16:21;;;;;;;4.20;2.85;;;31.50;58.70;32.40;100680.00;;;;4970411;28;92932;-71
2023/07/10 10:19:24;;;;;;;3.00;2.35;;;31.80;58.70;32.70;100689.00;;;;4966343;28;113445;-68
2023/07/10 10:21:50;;;;;;;6.18;3.35;;;32.10;57.90;32.90;100685.00;;;;4970213;28;104211;-70
2023/07/10 10:24:16;;;;;;;3.78;2.50;;;32.30;57.00;33.20;100685.00;;;;4967041;28;93078;-71
2023/07/10 10:26:57;;;;;;;5.05;2.00;;;32.50;56.60;33.40;100683.00;;;;4955143;28;93686;-70
2023/07/10 10:30:05;;;;;;;3.55;2.45;;;32.70;56.20;33.70;100678.00;;;;4965556;28;92961;-69
2023/07/10 10:32:51;;;;;;;3.13;2.65;;;33.00;55.50;33.90;100672.00;;;;4963787;28;92965;-72
2023/07/10 10:36:21;;;;;;;2.50;1.95;;;33.20;54.70;34.10;100673.00;;;;4956889;28;98480;-72
2023/07/10 10:39:20;;;;;;;4.07;1.75;;;33.40;54.50;34.20;100669.00;;;;4928041;28;93472;-71
2023/07/10 10:42:15;;;;;;;3.53;2.08;;;33.60;53.70;34.50;100657.00;;;;4952717;28;92969;-71
2023/07/10 10:44:57;;;;;;;4.80;2.67;;;33.80;53.20;34.80;100663.00;;;;4952968;28;97672;-71
2023/07/10 10:47:40;;;;;;;2.97;2.67;;;34.00;51.90;35.00;100653.00;;;;4955855;28;95117;-71
2023/07/10 10:50:32;;;;;;;3.45;2.35;;;34.30;51.40;35.50;100655.00;;;;4967269;28;108733;-73
2023/07/10 10:53:30;;;;;;;6.22;2.40;;;34.70;51.10;35.90;100659.00;;;;4972702;28;92864;-70
2023/07/10 10:56:17;;;;;;;4.20;2.55;;;35.10;50.20;36.20;100663.00;;;;4955524;28;94167;-72
2023/07/10 10:59:03;;;;;;;3.70;2.10;;;35.40;49.00;36.50;100668.00;;;;4970606;28;92777;-70